Time;durP1;ratioP1;P1;durP2;ratioP2;P2;SDS_P1;SDS_P2;PMS_P1;PMS_P2;Temp;Humidity;BMP_temperature;BMP_pressure;BME280_temperature;BME280_humidity;BME280_pressure;Samples;Min_cycle;Max_cycle;Signal;HPM_P1;HPM_P2
2022/07/14 00:04:48;;;;;;;2.60;0.50;;;;;;;;;;20911672;28;20209;-74
2022/07/14 00:14:49;;;;;;;0.75;0.40;;;;;;;;;;20927244;28;20207;-73
2022/07/14 00:24:51;;;;;;;2.20;0.60;;;;;;;;;;20909324;28;20231;-74
2022/07/14 00:34:53;;;;;;;0.90;0.57;;;;;;;;;;20924657;28;20220;-74
2022/07/14 00:44:55;;;;;;;0.57;0.30;;;;;;;;;;20923176;28;20226;-74
2022/07/14 00:54:57;;;;;;;0.90;0.60;;;;;;;;;;20907247;28;20219;-74
2022/07/14 01:04:59;;;;;;;2.63;0.50;;;;;;;;;;20915255;28;20209;-74
2022/07/14 01:15:00;;;;;;;1.35;0.50;;;;;;;;;;20905180;28;20215;-74
2022/07/14 01:25:06;;;;;;;0.80;0.50;;;;;;;;;;20921817;28;20621;-74
2022/07/14 01:35:09;;;;;;;2.22;0.60;;;;;;;;;;20919481;28;20212;-74
2022/07/14 01:45:12;;;;;;;0.57;0.40;;;25.40;95.50;;;;;;20918115;28;20702;-74
2022/07/14 01:55:14;;;;;;;2.08;0.50;;;;;;;;;;20903742;28;20212;-74
2022/07/14 02:05:17;;;;;;;0.95;0.50;;;;;;;;;;20917433;28;20217;-74
2022/07/14 02:15:19;;;;;;;0.52;0.45;;;;;;;;;;20919661;28;20218;-74
2022/07/14 02:25:22;;;;;;;0.82;0.50;;;;;;;;;;20917691;28;20208;-72
2022/07/14 02:35:23;;;;;;;0.90;0.50;;;;;;;;;;20899288;28;20217;-73
2022/07/14 02:45:26;;;;;;;1.38;0.70;;;;;;;;;;20917090;28;20672;-74
2022/07/14 02:55:28;;;;;;;1.25;0.50;;;;;;;;;;21014891;22;20227;-75
2022/07/14 03:05:30;;;;;;;1.13;0.60;;;;;;;;;;21065464;28;20238;-76
2022/07/14 03:15:32;;;;;;;1.65;0.63;;;;;;;;;;21079380;28;20709;-74
2022/07/14 03:25:35;;;;;;;2.15;0.70;;;;;;;;;;21080389;28;20203;-74
2022/07/14 03:35:38;;;;;;;2.05;0.60;;;;;;;;;;21026421;28;20229;-73
2022/07/14 03:45:41;;;;;;;2.67;0.70;;;;;;;;;;21005547;28;20686;-73
2022/07/14 03:55:44;;;;;;;2.63;0.95;;;;;;;;;;21057053;28;20227;-73
2022/07/14 04:05:46;;;;;;;1.80;0.88;;;;;;;;;;21067869;28;20209;-74
2022/07/14 04:15:50;;;;;;;3.08;0.65;;;;;;;;;;21066388;28;20275;-72
2022/07/14 04:25:52;;;;;;;2.45;0.63;;;;;;;;;;21058442;28;20264;-74
2022/07/14 04:35:55;;;;;;;1.33;0.77;;;24.00;98.60;;;;;;21045200;28;20222;-73
2022/07/14 04:45:57;;;;;;;1.10;0.70;;;;;;;;;;21058510;28;20211;-74
2022/07/14 04:55:59;;;;;;;1.27;0.70;;;;;;;;;;20997554;28;20214;-74
2022/07/14 05:06:08;;;;;;;2.90;0.77;;;;;;;;;;20987372;28;20247;-73
2022/07/14 05:16:11;;;;;;;2.38;1.00;;;;;;;;;;20986642;28;20210;-74
2022/07/14 05:26:13;;;;;;;0.93;0.60;;;;;;;;;;20969485;28;20211;-74
2022/07/14 05:36:15;;;;;;;1.48;0.90;;;;;;;;;;20985538;28;20572;-74
2022/07/14 05:46:18;;;;;;;1.45;0.70;;;;;;;;;;20987738;28;20260;-73
2022/07/14 05:56:22;;;;;;;1.10;0.70;;;;;;;;;;20986210;28;20284;-73
2022/07/14 06:06:24;;;;;;;1.35;1.00;;;;;;;;;;21039410;28;20218;-74
2022/07/14 06:16:27;;;;;;;1.25;0.80;;;;;;;;;;21066882;28;20222;-75
2022/07/14 06:26:30;;;;;;;1.25;0.80;;;;;;;;;;21076512;28;20198;-74
2022/07/14 06:36:33;;;;;;;1.58;0.82;;;;;;;;;;21085582;28;20224;-74
2022/07/14 06:46:37;;;;;;;3.83;0.90;;;25.10;95.70;;;;;;21084812;28;20199;-74
2022/07/14 06:56:38;;;;;;;1.45;0.75;;;;;;;;;;21084449;28;20263;-74
2022/07/14 07:06:43;;;;;;;5.80;4.20;;;;;;;;;;21083113;28;20198;-76
2022/07/14 07:16:46;;;;;;;3.25;2.30;;;25.40;99.90;;;;;;21081698;28;20224;-75
2022/07/14 07:26:48;;;;;;;1.30;0.80;;;;;;;;;;21082707;28;20742;-75
2022/07/14 07:36:49;;;;;;;1.73;0.80;;;;;;;;;;21080794;28;20208;-75
2022/07/14 07:46:51;;;;;;;1.70;0.90;;;;;;;;;;21079586;28;20265;-75
2022/07/14 07:56:53;;;;;;;1.02;0.68;;;;;;;;;;21077783;28;20288;-75
2022/07/14 08:06:55;;;;;;;2.88;1.25;;;;;;;;;;21078107;28;20203;-75
2022/07/14 08:16:58;;;;;;;1.05;0.70;;;26.20;99.90;;;;;;21078269;28;20234;-75
2022/07/14 08:27:00;;;;;;;1.20;0.80;;;;;;;;;;21076048;28;20200;-75
2022/07/14 08:37:01;;;;;;;1.02;0.70;;;;;;;;;;21074553;28;20274;-75
2022/07/14 08:47:03;;;;;;;1.17;0.70;;;;;;;;;;21075966;28;20557;-75
2022/07/14 08:57:05;;;;;;;1.15;0.77;;;;;;;;;;20929934;22;20228;-72
2022/07/14 09:07:07;;;;;;;1.10;0.70;;;;;;;;;;20811489;28;20275;-72
2022/07/14 09:17:16;;;;;;;1.35;0.70;;;;;;;;;;20776581;28;20585;-72
2022/07/14 09:27:21;;;;;;;1.00;0.63;;;28.20;83.80;;;;;;20814333;28;20229;-72
2022/07/14 09:37:25;;;;;;;1.42;0.60;;;;;;;;;;20785166;28;20268;-72
2022/07/14 09:47:27;;;;;;;2.08;0.60;;;;;;;;;;20783062;28;20275;-72
2022/07/14 09:57:29;;;;;;;1.48;0.60;;;;;;;;;;20776374;28;20775;-72
2022/07/14 10:07:41;;;;;;;1.70;1.00;;;28.50;91.50;;;;;;20792199;28;20214;-72
2022/07/14 10:17:43;;;;;;;1.70;0.60;;;28.90;85.30;;;;;;20774670;28;20689;-72
2022/07/14 10:27:46;;;;;;;1.83;0.77;;;29.60;91.30;;;;;;20773494;28;20208;-71
2022/07/14 10:37:54;;;;;;;1.63;0.80;;;;;;;;;;20790155;28;20724;-72
2022/07/14 10:47:56;;;;;;;2.42;0.70;;;;;;;;;;20807256;28;20287;-71
2022/07/14 10:58:05;;;;;;;2.67;0.68;;;29.60;78.90;;;;;;20816000;28;20292;-71
2022/07/14 11:08:09;;;;;;;0.75;0.50;;;30.20;88.20;;;;;;20788604;28;20751;-72
2022/07/14 11:18:26;;;;;;;1.17;0.57;;;30.70;78.20;;;;;;20817018;28;20203;-72
2022/07/14 11:28:51;;;;;;;1.67;0.80;;;31.00;74.20;;;;;;20801177;28;20215;-71
2022/07/14 11:39:16;;;;;;;2.03;0.60;;;30.50;89.60;;;;;;20800444;28;20272;-71
2022/07/14 11:49:22;;;;;;;2.35;0.70;;;;;;;;;;20816399;28;20898;-73
2022/07/14 11:59:25;;;;;;;1.83;0.63;;;30.80;80.00;;;;;;20799318;28;20219;-72
2022/07/14 12:09:32;;;;;;;0.82;0.45;;;;;;;;;;20783023;28;20714;-72
2022/07/14 12:19:34;;;;;;;2.13;0.90;;;;;;;;;;20816868;28;20210;-71
2022/07/14 12:29:44;;;;;;;1.88;0.60;;;30.40;85.50;;;;;;20812704;28;20681;-71
2022/07/14 12:39:46;;;;;;;1.10;0.80;;;;;;;;;;20795537;28;20210;-71
2022/07/14 12:49:49;;;;;;;2.80;0.90;;;;;;;;;;20778840;28;20640;-71
2022/07/14 12:59:51;;;;;;;3.05;0.80;;;30.70;81.70;;;;;;20778196;28;20259;-72
2022/07/14 13:10:16;;;;;;;1.55;0.55;;;31.50;76.90;;;;;;20779222;28;20219;-71
2022/07/14 13:20:37;;;;;;;0.88;0.55;;;;;;;;;;20793722;28;20548;-71
2022/07/14 13:30:39;;;;;;;1.10;0.77;;;;;;;;;;20808922;28;20272;-72
2022/07/14 13:40:41;;;;;;;1.60;0.80;;;;;;;;;;20778365;28;20672;-72
2022/07/14 14:01:03;;;;;;;2.20;0.80;;;30.40;85.50;;;;;;20803889;28;20218;-71
2022/07/14 14:11:05;;;;;;;2.65;1.13;;;30.80;88.20;;;;;;20783133;28;20239;-72
2022/07/14 14:21:10;;;;;;;3.50;0.80;;;31.10;88.10;;;;;;20789942;28;20269;-71
2022/07/14 14:31:14;;;;;;;2.83;0.88;;;;;;;;;;20784889;28;20276;-71
2022/07/14 14:41:17;;;;;;;1.67;0.90;;;;;;;;;;20798816;28;20258;-72
2022/07/14 14:51:48;;;;;;;3.10;0.75;;;;;;;;;;20802810;22;20633;-78
2022/07/14 15:01:53;;;;;;;1.92;0.90;;;;;;;;;;21088873;28;20266;-79
2022/07/14 15:11:55;;;;;;;3.17;0.90;;;;;;;;;;21113289;27;20257;-78
2022/07/14 15:21:57;;;;;;;1.05;0.68;;;;;;;;;;21102024;28;20690;-77
2022/07/14 15:32:04;;;;;;;1.33;0.70;;;;;;;;;;21061317;28;20216;-77
2022/07/14 15:42:07;;;;;;;2.45;0.63;;;;;;;;;;21093896;28;20585;-77
2022/07/14 15:52:08;;;;;;;3.05;1.35;;;29.50;75.10;;;;;;21103818;27;20223;-78
2022/07/14 16:02:10;;;;;;;1.48;0.60;;;;;;;;;;21076476;27;20203;-77
2022/07/14 16:12:12;;;;;;;3.13;0.90;;;;;;;;;;21081791;28;20277;-80
2022/07/14 16:22:32;;;;;;;2.88;1.30;;;;;;;;;;21129322;28;20224;-78
2022/07/14 16:32:34;;;;;;;2.95;1.73;;;;;;;;;;21124389;28;20208;-78
2022/07/14 16:42:36;;;;;;;1.63;0.82;;;;;;;;;;21099341;28;20591;-82
2022/07/14 16:52:38;;;;;;;2.30;0.70;;;;;;;;;;21118857;28;20220;-77
2022/07/14 17:02:41;;;;;;;1.30;0.50;;;29.90;79.20;;;;;;21111977;28;20212;-78
2022/07/14 17:12:43;;;;;;;2.17;0.60;;;;;;;;;;21105828;28;20227;-77
2022/07/14 17:22:47;;;;;;;2.63;0.80;;;;;;;;;;21128079;28;20229;-77
2022/07/14 17:32:49;;;;;;;1.63;0.90;;;;;;;;;;21120593;28;20296;-78
2022/07/14 17:42:51;;;;;;;1.08;0.50;;;;;;;;;;21102914;28;20212;-78
2022/07/14 17:52:53;;;;;;;2.90;0.90;;;;;;;;;;21090030;28;20223;-77
2022/07/14 18:02:55;;;;;;;2.17;0.50;;;28.70;73.50;;;;;;21066759;28;20260;-77
2022/07/14 18:12:57;;;;;;;2.25;0.55;;;;;;;;;;21082114;28;20237;-77
2022/07/14 18:22:59;;;;;;;2.00;0.50;;;;;;;;;;21087252;28;20219;-76
2022/07/14 18:33:01;;;;;;;1.50;0.60;;;;;;;;;;21128049;28;20680;-77
2022/07/14 18:43:23;;;;;;;4.03;0.70;;;;;;;;;;20722558;28;20638;-78
2022/07/14 18:53:27;;;;;;;2.65;0.88;;;;;;;;;;21059989;28;20238;-77
2022/07/14 19:03:30;;;;;;;1.35;0.70;;;;;;;;;;21109575;28;20210;-77
2022/07/14 19:13:38;;;;;;;1.20;0.65;;;;;;;;;;21111746;28;20303;-76
2022/07/14 19:23:40;;;;;;;2.50;0.57;;;;;;;;;;21127004;28;20212;-77
2022/07/14 19:33:41;;;;;;;0.90;0.60;;;;;;;;;;21106265;28;20222;-77
2022/07/14 19:43:44;;;;;;;1.75;0.75;;;;;;;;;;21107014;28;20208;-76
2022/07/14 19:53:46;;;;;;;2.00;0.70;;;;;;;;;;21125424;28;20231;-77
2022/07/14 20:03:48;;;;;;;2.35;0.60;;;;;;;;;;21124629;28;20267;-77
2022/07/14 20:13:52;;;;;;;1.60;0.80;;;;;;;;;;21124274;28;20296;-77
2022/07/14 20:23:54;;;;;;;2.08;0.85;;;;;;;;;;21125470;28;20215;-78
2022/07/14 20:33:56;;;;;;;1.88;0.68;;;;;;;;;;21124456;28;20211;-77
2022/07/14 20:43:58;;;;;;;2.05;0.80;;;;;;;;;;21107408;28;20215;-78
2022/07/14 20:54:00;;;;;;;2.08;0.60;;;;;;;;;;21064340;22;20259;-75
2022/07/14 21:04:02;;;;;;;1.63;0.55;;;;;;;;;;20923455;28;20254;-72
2022/07/14 21:14:04;;;;;;;0.90;0.57;;;;;;;;;;20904658;28;20224;-72
2022/07/14 21:24:06;;;;;;;1.70;0.60;;;;;;;;;;20906674;28;20772;-73
2022/07/14 21:34:10;;;;;;;2.35;0.80;;;;;;;;;;20905186;28;20212;-74
2022/07/14 21:44:12;;;;;;;0.73;0.40;;;;;;;;;;20903494;28;20211;-74
2022/07/14 21:54:13;;;;;;;3.67;0.70;;;;;;;;;;20902953;28;20789;-73
2022/07/14 22:04:15;;;;;;;1.45;0.63;;;;;;;;;;20903892;28;20773;-74
2022/07/14 22:14:18;;;;;;;2.08;0.60;;;;;;;;;;20901277;28;20240;-74
2022/07/14 22:24:19;;;;;;;1.55;0.50;;;;;;;;;;20901280;28;20230;-74
2022/07/14 22:34:21;;;;;;;1.27;0.52;;;;;;;;;;20902709;28;20224;-73
2022/07/14 22:44:23;;;;;;;1.73;0.70;;;;;;;;;;20900378;28;20287;-73
2022/07/14 22:54:25;;;;;;;1.38;0.47;;;;;;;;;;20900878;28;20234;-73
2022/07/14 23:04:27;;;;;;;1.25;0.60;;;;;;;;;;20900397;28;20256;-74
2022/07/14 23:14:28;;;;;;;4.13;0.90;;;;;;;;;;20910084;28;20631;-73
2022/07/14 23:24:30;;;;;;;2.53;0.73;;;;;;;;;;20917368;28;20204;-74
2022/07/14 23:34:32;;;;;;;2.38;0.60;;;;;;;;;;20915224;28;20229;-74
2022/07/14 23:44:34;;;;;;;1.13;0.47;;;;;;;;;;20913317;28;20675;-74
2022/07/14 23:54:35;;;;;;;1.95;0.50;;;;;;;;;;20912107;28;20217;-74
